sensor_id;sensor_type;location;lat;lon;timestamp;temperature;humidity
13203;DHT22;6666;51.626;7.530;2023-04-03T00:01:23;4.10;99.90
13203;DHT22;6666;51.626;7.530;2023-04-03T00:03:52;4.10;99.90
13203;DHT22;6666;51.626;7.530;2023-04-03T00:06:21;4.10;99.90
13203;DHT22;6666;51.626;7.530;2023-04-03T00:08:49;4.10;99.90
13203;DHT22;6666;51.626;7.530;2023-04-03T00:11:18;4.00;99.90
13203;DHT22;6666;51.626;7.530;2023-04-03T00:13:46;4.00;99.90
13203;DHT22;6666;51.626;7.530;2023-04-03T00:16:16;4.00;99.90
13203;DHT22;6666;51.626;7.530;2023-04-03T00:18:44;3.90;99.90
13203;DHT22;6666;51.626;7.530;2023-04-03T00:21:13;3.90;99.90
13203;DHT22;6666;51.626;7.530;2023-04-03T00:23:42;3.90;99.90
13203;DHT22;6666;51.626;7.530;2023-04-03T00:26:10;4.00;99.90
13203;DHT22;6666;51.626;7.530;2023-04-03T00:28:40;3.80;99.90
13203;DHT22;6666;51.626;7.530;2023-04-03T00:31:08;3.90;99.90
13203;DHT22;6666;51.626;7.530;2023-04-03T00:33:38;3.80;99.90
13203;DHT22;6666;51.626;7.530;2023-04-03T00:36:08;3.80;99.90
13203;DHT22;6666;51.626;7.530;2023-04-03T00:38:37;3.70;99.90
13203;DHT22;6666;51.626;7.530;2023-04-03T00:41:06;3.70;99.90
13203;DHT22;6666;51.626;7.530;2023-04-03T00:43:34;3.80;99.90
13203;DHT22;6666;51.626;7.530;2023-04-03T00:46:03;3.70;99.90
13203;DHT22;6666;51.626;7.530;2023-04-03T00:48:32;3.70;99.90
13203;DHT22;6666;51.626;7.530;2023-04-03T00:51:06;3.70;99.90
13203;DHT22;6666;51.626;7.530;2023-04-03T00:53:40;3.70;99.90
13203;DHT22;6666;51.626;7.530;2023-04-03T00:56:12;3.70;99.90
13203;DHT22;6666;51.626;7.530;2023-04-03T00:58:44;3.60;99.90
13203;DHT22;6666;51.626;7.530;2023-04-03T01:01:17;3.60;99.90
13203;DHT22;6666;51.626;7.530;2023-04-03T01:03:48;3.50;99.90
13203;DHT22;6666;51.626;7.530;2023-04-03T01:06:23;3.50;99.90
13203;DHT22;6666;51.626;7.530;2023-04-03T01:08:53;3.50;99.90
13203;DHT22;6666;51.626;7.530;2023-04-03T01:11:23;3.40;99.90
13203;DHT22;6666;51.626;7.530;2023-04-03T01:13:53;3.40;99.90
13203;DHT22;6666;51.626;7.530;2023-04-03T01:16:21;3.40;99.90
13203;DHT22;6666;51.626;7.530;2023-04-03T01:18:49;3.40;99.90
13203;DHT22;6666;51.626;7.530;2023-04-03T01:22:00;3.30;99.90
13203;DHT22;6666;51.626;7.530;2023-04-03T01:24:33;3.30;99.90
13203;DHT22;6666;51.626;7.530;2023-04-03T01:27:08;3.30;99.90
13203;DHT22;6666;51.626;7.530;2023-04-03T01:29:37;3.20;99.90
13203;DHT22;6666;51.626;7.530;2023-04-03T01:32:07;3.20;99.90
13203;DHT22;6666;51.626;7.530;2023-04-03T01:34:37;3.20;99.90
13203;DHT22;6666;51.626;7.530;2023-04-03T01:37:05;3.10;99.90
13203;DHT22;6666;51.626;7.530;2023-04-03T01:39:34;3.10;99.90
13203;DHT22;6666;51.626;7.530;2023-04-03T01:42:04;3.10;99.90
13203;DHT22;6666;51.626;7.530;2023-04-03T01:44:37;3.10;99.90
13203;DHT22;6666;51.626;7.530;2023-04-03T01:47:07;3.10;99.90
13203;DHT22;6666;51.626;7.530;2023-04-03T01:49:39;3.00;99.90
13203;DHT22;6666;51.626;7.530;2023-04-03T01:52:07;3.00;99.90
13203;DHT22;6666;51.626;7.530;2023-04-03T01:54:36;3.00;99.90
13203;DHT22;6666;51.626;7.530;2023-04-03T01:57:04;2.90;99.90
13203;DHT22;6666;51.626;7.530;2023-04-03T01:59:34;2.90;99.90
13203;DHT22;6666;51.626;7.530;2023-04-03T02:02:02;2.90;99.90
13203;DHT22;6666;51.626;7.530;2023-04-03T02:04:32;2.90;99.90
13203;DHT22;6666;51.626;7.530;2023-04-03T02:07:00;2.80;99.90
13203;DHT22;6666;51.626;7.530;2023-04-03T02:09:29;2.80;99.90
13203;DHT22;6666;51.626;7.530;2023-04-03T02:11:57;2.70;99.90
13203;DHT22;6666;51.626;7.530;2023-04-03T02:14:25;2.80;99.90
13203;DHT22;6666;51.626;7.530;2023-04-03T02:16:54;2.80;99.90
13203;DHT22;6666;51.626;7.530;2023-04-03T02:19:23;2.70;99.90
13203;DHT22;6666;51.626;7.530;2023-04-03T02:21:53;2.70;99.90
13203;DHT22;6666;51.626;7.530;2023-04-03T02:24:21;2.60;99.90
13203;DHT22;6666;51.626;7.530;2023-04-03T02:26:49;2.60;99.90
13203;DHT22;6666;51.626;7.530;2023-04-03T02:29:18;2.60;99.90
13203;DHT22;6666;51.626;7.530;2023-04-03T02:31:47;2.60;99.90
13203;DHT22;6666;51.626;7.530;2023-04-03T02:34:15;2.60;99.90
13203;DHT22;6666;51.626;7.530;2023-04-03T02:36:45;2.60;99.90
13203;DHT22;6666;51.626;7.530;2023-04-03T02:39:16;2.60;99.90
13203;DHT22;6666;51.626;7.530;2023-04-03T02:41:44;2.50;99.90
13203;DHT22;6666;51.626;7.530;2023-04-03T02:44:18;2.50;99.90
13203;DHT22;6666;51.626;7.530;2023-04-03T02:46:47;2.40;99.90
13203;DHT22;6666;51.626;7.530;2023-04-03T02:49:16;2.50;99.90
13203;DHT22;6666;51.626;7.530;2023-04-03T02:51:44;2.50;99.90
13203;DHT22;6666;51.626;7.530;2023-04-03T02:54:13;2.50;99.90
13203;DHT22;6666;51.626;7.530;2023-04-03T02:56:47;2.40;99.90
13203;DHT22;6666;51.626;7.530;2023-04-03T02:59:16;2.30;99.90
13203;DHT22;6666;51.626;7.530;2023-04-03T03:01:44;2.30;99.90
13203;DHT22;6666;51.626;7.530;2023-04-03T03:04:13;2.30;99.90
13203;DHT22;6666;51.626;7.530;2023-04-03T03:06:41;2.20;99.90
13203;DHT22;6666;51.626;7.530;2023-04-03T03:09:13;2.20;99.90
13203;DHT22;6666;51.626;7.530;2023-04-03T03:11:42;2.20;99.90
13203;DHT22;6666;51.626;7.530;2023-04-03T03:14:11;2.20;99.90
13203;DHT22;6666;51.626;7.530;2023-04-03T03:16:40;2.20;99.90
13203;DHT22;6666;51.626;7.530;2023-04-03T03:19:08;2.10;99.90
13203;DHT22;6666;51.626;7.530;2023-04-03T03:21:37;2.10;99.90
13203;DHT22;6666;51.626;7.530;2023-04-03T03:24:06;2.10;99.90
13203;DHT22;6666;51.626;7.530;2023-04-03T03:26:34;2.20;99.90
13203;DHT22;6666;51.626;7.530;2023-04-03T03:29:03;2.10;99.90
13203;DHT22;6666;51.626;7.530;2023-04-03T03:31:33;2.00;99.90
13203;DHT22;6666;51.626;7.530;2023-04-03T03:34:01;2.00;99.90
13203;DHT22;6666;51.626;7.530;2023-04-03T03:36:30;2.00;99.90
13203;DHT22;6666;51.626;7.530;2023-04-03T03:38:58;1.90;99.90
13203;DHT22;6666;51.626;7.530;2023-04-03T03:41:27;1.90;99.90
13203;DHT22;6666;51.626;7.530;2023-04-03T03:43:55;1.90;99.90
13203;DHT22;6666;51.626;7.530;2023-04-03T03:46:26;1.80;99.90
13203;DHT22;6666;51.626;7.530;2023-04-03T03:48:56;1.80;99.90
13203;DHT22;6666;51.626;7.530;2023-04-03T03:51:24;1.80;99.90
13203;DHT22;6666;51.626;7.530;2023-04-03T03:53:53;1.70;99.90
13203;DHT22;6666;51.626;7.530;2023-04-03T03:56:22;1.60;99.90
13203;DHT22;6666;51.626;7.530;2023-04-03T03:58:50;1.70;99.90
13203;DHT22;6666;51.626;7.530;2023-04-03T04:01:20;1.70;99.90
13203;DHT22;6666;51.626;7.530;2023-04-03T04:03:49;1.70;99.90
13203;DHT22;6666;51.626;7.530;2023-04-03T04:06:22;1.70;99.90
13203;DHT22;6666;51.626;7.530;2023-04-03T04:08:53;1.60;99.90
13203;DHT22;6666;51.626;7.530;2023-04-03T04:11:21;1.70;99.90
13203;DHT22;6666;51.626;7.530;2023-04-03T04:13:51;1.60;99.90
13203;DHT22;6666;51.626;7.530;2023-04-03T04:16:24;1.50;99.90
13203;DHT22;6666;51.626;7.530;2023-04-03T04:18:53;1.50;99.90
13203;DHT22;6666;51.626;7.530;2023-04-03T04:21:24;1.50;99.90
13203;DHT22;6666;51.626;7.530;2023-04-03T04:23:54;1.50;99.90
13203;DHT22;6666;51.626;7.530;2023-04-03T04:26:23;1.50;99.90
13203;DHT22;6666;51.626;7.530;2023-04-03T04:28:52;1.40;99.90
13203;DHT22;6666;51.626;7.530;2023-04-03T04:31:20;1.50;99.90
13203;DHT22;6666;51.626;7.530;2023-04-03T04:33:49;1.30;99.90
13203;DHT22;6666;51.626;7.530;2023-04-03T04:36:18;1.40;99.90
13203;DHT22;6666;51.626;7.530;2023-04-03T04:38:49;1.40;99.90
13203;DHT22;6666;51.626;7.530;2023-04-03T04:41:21;1.30;99.90
13203;DHT22;6666;51.626;7.530;2023-04-03T04:43:51;1.30;99.90
13203;DHT22;6666;51.626;7.530;2023-04-03T04:46:20;1.30;99.90
13203;DHT22;6666;51.626;7.530;2023-04-03T04:48:53;1.20;99.90
13203;DHT22;6666;51.626;7.530;2023-04-03T04:51:22;1.20;99.90
13203;DHT22;6666;51.626;7.530;2023-04-03T04:53:52;1.30;99.90
13203;DHT22;6666;51.626;7.530;2023-04-03T04:56:23;1.20;99.90
13203;DHT22;6666;51.626;7.530;2023-04-03T04:58:54;1.30;99.90
13203;DHT22;6666;51.626;7.530;2023-04-03T05:01:24;1.30;99.90
13203;DHT22;6666;51.626;7.530;2023-04-03T05:03:59;1.40;99.90
13203;DHT22;6666;51.626;7.530;2023-04-03T05:06:28;1.20;99.90
13203;DHT22;6666;51.626;7.530;2023-04-03T05:08:58;1.10;99.90
13203;DHT22;6666;51.626;7.530;2023-04-03T05:11:27;1.20;99.90
13203;DHT22;6666;51.626;7.530;2023-04-03T05:13:56;1.30;99.90
13203;DHT22;6666;51.626;7.530;2023-04-03T05:16:25;1.10;99.90
13203;DHT22;6666;51.626;7.530;2023-04-03T05:18:55;1.10;99.90
13203;DHT22;6666;51.626;7.530;2023-04-03T05:21:23;1.10;99.90
13203;DHT22;6666;51.626;7.530;2023-04-03T05:23:53;1.00;99.90
13203;DHT22;6666;51.626;7.530;2023-04-03T05:26:23;1.10;99.90
13203;DHT22;6666;51.626;7.530;2023-04-03T05:28:53;1.20;99.90
13203;DHT22;6666;51.626;7.530;2023-04-03T05:31:21;1.30;99.90
13203;DHT22;6666;51.626;7.530;2023-04-03T05:33:50;1.10;99.90
13203;DHT22;6666;51.626;7.530;2023-04-03T05:36:18;1.20;99.90
13203;DHT22;6666;51.626;7.530;2023-04-03T05:38:51;1.30;99.90
13203;DHT22;6666;51.626;7.530;2023-04-03T05:41:20;1.20;99.90
13203;DHT22;6666;51.626;7.530;2023-04-03T05:43:50;1.20;99.90
13203;DHT22;6666;51.626;7.530;2023-04-03T05:46:20;1.30;99.90
13203;DHT22;6666;51.626;7.530;2023-04-03T05:48:53;1.40;99.90
13203;DHT22;6666;51.626;7.530;2023-04-03T05:51:27;1.40;99.90
13203;DHT22;6666;51.626;7.530;2023-04-03T05:54:08;1.40;99.90
13203;DHT22;6666;51.626;7.530;2023-04-03T05:56:37;1.40;99.90
13203;DHT22;6666;51.626;7.530;2023-04-03T05:59:07;1.40;99.90
13203;DHT22;6666;51.626;7.530;2023-04-03T06:01:36;1.50;99.90
13203;DHT22;6666;51.626;7.530;2023-04-03T06:04:04;1.60;99.90
13203;DHT22;6666;51.626;7.530;2023-04-03T06:06:44;1.60;99.90
13203;DHT22;6666;51.626;7.530;2023-04-03T06:09:12;1.60;99.90
13203;DHT22;6666;51.626;7.530;2023-04-03T06:11:41;1.60;99.90
13203;DHT22;6666;51.626;7.530;2023-04-03T06:14:11;1.60;99.90
13203;DHT22;6666;51.626;7.530;2023-04-03T06:16:39;1.70;99.90
13203;DHT22;6666;51.626;7.530;2023-04-03T06:19:08;1.70;99.90
13203;DHT22;6666;51.626;7.530;2023-04-03T06:21:39;1.80;99.90
13203;DHT22;6666;51.626;7.530;2023-04-03T06:24:08;1.80;99.90
13203;DHT22;6666;51.626;7.530;2023-04-03T06:26:37;1.80;99.90
13203;DHT22;6666;51.626;7.530;2023-04-03T06:29:05;1.80;99.90
13203;DHT22;6666;51.626;7.530;2023-04-03T06:31:35;1.80;99.90
13203;DHT22;6666;51.626;7.530;2023-04-03T06:34:04;1.80;99.90
13203;DHT22;6666;51.626;7.530;2023-04-03T06:36:35;1.90;99.90
13203;DHT22;6666;51.626;7.530;2023-04-03T06:39:04;1.90;99.90
13203;DHT22;6666;51.626;7.530;2023-04-03T06:41:32;1.90;99.90
13203;DHT22;6666;51.626;7.530;2023-04-03T06:44:03;1.90;99.90
13203;DHT22;6666;51.626;7.530;2023-04-03T06:46:32;1.80;99.90
13203;DHT22;6666;51.626;7.530;2023-04-03T06:49:01;2.00;99.90
13203;DHT22;6666;51.626;7.530;2023-04-03T06:51:30;2.20;99.90
13203;DHT22;6666;51.626;7.530;2023-04-03T06:53:59;2.20;99.90
13203;DHT22;6666;51.626;7.530;2023-04-03T06:56:28;2.20;99.90
13203;DHT22;6666;51.626;7.530;2023-04-03T06:58:56;2.40;99.90
13203;DHT22;6666;51.626;7.530;2023-04-03T07:01:27;2.40;99.90
13203;DHT22;6666;51.626;7.530;2023-04-03T07:03:57;2.40;99.90
13203;DHT22;6666;51.626;7.530;2023-04-03T07:06:26;2.50;99.90
13203;DHT22;6666;51.626;7.530;2023-04-03T07:08:55;2.50;99.90
13203;DHT22;6666;51.626;7.530;2023-04-03T07:11:23;2.50;99.90
13203;DHT22;6666;51.626;7.530;2023-04-03T07:13:53;2.60;99.90
13203;DHT22;6666;51.626;7.530;2023-04-03T07:16:21;2.60;99.90
13203;DHT22;6666;51.626;7.530;2023-04-03T07:18:49;2.70;99.90
13203;DHT22;6666;51.626;7.530;2023-04-03T07:21:17;2.80;99.90
13203;DHT22;6666;51.626;7.530;2023-04-03T07:23:47;2.80;99.90
13203;DHT22;6666;51.626;7.530;2023-04-03T07:26:20;2.70;99.90
13203;DHT22;6666;51.626;7.530;2023-04-03T07:28:49;2.80;99.90
13203;DHT22;6666;51.626;7.530;2023-04-03T07:31:18;2.90;99.90
13203;DHT22;6666;51.626;7.530;2023-04-03T07:33:46;2.90;99.90
13203;DHT22;6666;51.626;7.530;2023-04-03T07:36:17;2.80;99.90
13203;DHT22;6666;51.626;7.530;2023-04-03T07:38:47;2.80;99.90
13203;DHT22;6666;51.626;7.530;2023-04-03T07:41:18;3.00;99.90
13203;DHT22;6666;51.626;7.530;2023-04-03T07:43:49;2.90;99.90
13203;DHT22;6666;51.626;7.530;2023-04-03T07:46:17;2.90;99.90
13203;DHT22;6666;51.626;7.530;2023-04-03T07:48:46;3.10;99.90
13203;DHT22;6666;51.626;7.530;2023-04-03T07:51:14;3.00;99.90
13203;DHT22;6666;51.626;7.530;2023-04-03T07:53:43;3.10;99.90
13203;DHT22;6666;51.626;7.530;2023-04-03T07:56:12;3.20;99.90
13203;DHT22;6666;51.626;7.530;2023-04-03T07:58:40;3.40;99.90
13203;DHT22;6666;51.626;7.530;2023-04-03T08:01:09;3.40;99.90
13203;DHT22;6666;51.626;7.530;2023-04-03T08:03:38;3.30;99.90
13203;DHT22;6666;51.626;7.530;2023-04-03T08:06:08;3.50;99.90
13203;DHT22;6666;51.626;7.530;2023-04-03T08:08:42;3.60;99.90
13203;DHT22;6666;51.626;7.530;2023-04-03T08:11:12;3.60;99.90
13203;DHT22;6666;51.626;7.530;2023-04-03T08:13:40;3.50;99.90
13203;DHT22;6666;51.626;7.530;2023-04-03T08:16:10;3.40;99.90
13203;DHT22;6666;51.626;7.530;2023-04-03T08:18:39;3.60;99.90
13203;DHT22;6666;51.626;7.530;2023-04-03T08:21:08;3.70;99.90
13203;DHT22;6666;51.626;7.530;2023-04-03T08:23:36;3.70;99.90
13203;DHT22;6666;51.626;7.530;2023-04-03T08:26:09;3.50;99.90
13203;DHT22;6666;51.626;7.530;2023-04-03T08:28:40;3.50;99.90
13203;DHT22;6666;51.626;7.530;2023-04-03T08:31:11;3.90;99.90
13203;DHT22;6666;51.626;7.530;2023-04-03T08:33:40;3.80;99.90
13203;DHT22;6666;51.626;7.530;2023-04-03T08:36:17;3.70;99.90
13203;DHT22;6666;51.626;7.530;2023-04-03T08:38:47;4.00;99.90
13203;DHT22;6666;51.626;7.530;2023-04-03T08:41:20;4.00;99.90
13203;DHT22;6666;51.626;7.530;2023-04-03T08:44:12;4.00;99.90
13203;DHT22;6666;51.626;7.530;2023-04-03T08:46:56;4.10;99.90
13203;DHT22;6666;51.626;7.530;2023-04-03T08:49:31;4.20;99.90
13203;DHT22;6666;51.626;7.530;2023-04-03T08:52:04;4.30;99.90
13203;DHT22;6666;51.626;7.530;2023-04-03T08:54:46;4.30;99.90
13203;DHT22;6666;51.626;7.530;2023-04-03T08:57:17;4.40;99.90
13203;DHT22;6666;51.626;7.530;2023-04-03T08:59:49;4.50;99.90
13203;DHT22;6666;51.626;7.530;2023-04-03T09:02:25;4.50;99.90
13203;DHT22;6666;51.626;7.530;2023-04-03T09:04:56;4.70;99.90
13203;DHT22;6666;51.626;7.530;2023-04-03T09:07:33;4.90;99.90
13203;DHT22;6666;51.626;7.530;2023-04-03T09:10:05;4.90;99.90
13203;DHT22;6666;51.626;7.530;2023-04-03T09:12:37;5.10;99.90
13203;DHT22;6666;51.626;7.530;2023-04-03T09:15:16;5.00;99.90
13203;DHT22;6666;51.626;7.530;2023-04-03T09:18:05;4.80;99.90
13203;DHT22;6666;51.626;7.530;2023-04-03T09:20:41;4.90;99.90
13203;DHT22;6666;51.626;7.530;2023-04-03T09:23:26;5.10;99.90
13203;DHT22;6666;51.626;7.530;2023-04-03T09:26:01;5.30;99.90
13203;DHT22;6666;51.626;7.530;2023-04-03T09:28:35;5.40;99.90
13203;DHT22;6666;51.626;7.530;2023-04-03T09:31:20;5.20;99.90
13203;DHT22;6666;51.626;7.530;2023-04-03T09:33:52;5.30;99.90
13203;DHT22;6666;51.626;7.530;2023-04-03T09:36:41;5.40;99.90
13203;DHT22;6666;51.626;7.530;2023-04-03T09:39:13;5.40;99.90
13203;DHT22;6666;51.626;7.530;2023-04-03T09:41:56;5.50;99.90
13203;DHT22;6666;51.626;7.530;2023-04-03T09:44:25;5.60;99.90
13203;DHT22;6666;51.626;7.530;2023-04-03T09:46:56;5.50;99.90
13203;DHT22;6666;51.626;7.530;2023-04-03T09:49:24;5.40;99.90
13203;DHT22;6666;51.626;7.530;2023-04-03T09:51:52;5.40;99.90
13203;DHT22;6666;51.626;7.530;2023-04-03T09:54:35;5.50;99.90
13203;DHT22;6666;51.626;7.530;2023-04-03T09:57:09;5.50;99.90
13203;DHT22;6666;51.626;7.530;2023-04-03T09:59:44;5.60;99.90
13203;DHT22;6666;51.626;7.530;2023-04-03T10:02:32;5.50;99.90
13203;DHT22;6666;51.626;7.530;2023-04-03T10:05:02;5.60;99.90
13203;DHT22;6666;51.626;7.530;2023-04-03T10:07:35;5.70;99.50
13203;DHT22;6666;51.626;7.530;2023-04-03T10:10:17;5.70;99.90
13203;DHT22;6666;51.626;7.530;2023-04-03T10:12:47;5.60;99.80
13203;DHT22;6666;51.626;7.530;2023-04-03T10:15:17;5.90;99.90
13203;DHT22;6666;51.626;7.530;2023-04-03T10:17:53;6.20;99.90
13203;DHT22;6666;51.626;7.530;2023-04-03T10:20:30;6.10;99.20
13203;DHT22;6666;51.626;7.530;2023-04-03T10:23:12;6.20;99.90
13203;DHT22;6666;51.626;7.530;2023-04-03T10:25:51;6.30;98.60
13203;DHT22;6666;51.626;7.530;2023-04-03T10:28:30;6.20;98.40
13203;DHT22;6666;51.626;7.530;2023-04-03T10:31:04;6.20;99.30
13203;DHT22;6666;51.626;7.530;2023-04-03T10:33:45;6.20;99.40
13203;DHT22;6666;51.626;7.530;2023-04-03T10:36:23;6.20;97.50
13203;DHT22;6666;51.626;7.530;2023-04-03T10:38:59;6.30;96.90
13203;DHT22;6666;51.626;7.530;2023-04-03T10:41:40;6.30;97.10
13203;DHT22;6666;51.626;7.530;2023-04-03T10:44:18;6.20;97.10
13203;DHT22;6666;51.626;7.530;2023-04-03T10:46:50;6.50;97.70
13203;DHT22;6666;51.626;7.530;2023-04-03T10:49:36;6.60;97.60
13203;DHT22;6666;51.626;7.530;2023-04-03T10:52:21;6.50;97.00
13203;DHT22;6666;51.626;7.530;2023-04-03T10:54:59;6.50;96.90
13203;DHT22;6666;51.626;7.530;2023-04-03T10:57:30;6.60;96.90
13203;DHT22;6666;51.626;7.530;2023-04-03T11:00:02;6.70;97.20
13203;DHT22;6666;51.626;7.530;2023-04-03T11:02:34;6.80;97.20
13203;DHT22;6666;51.626;7.530;2023-04-03T11:05:13;6.70;96.10
13203;DHT22;6666;51.626;7.530;2023-04-03T11:07:46;6.90;96.00
13203;DHT22;6666;51.626;7.530;2023-04-03T11:10:21;6.90;95.30
13203;DHT22;6666;51.626;7.530;2023-04-03T11:12:53;7.10;93.90
13203;DHT22;6666;51.626;7.530;2023-04-03T11:15:24;7.00;93.30
13203;DHT22;6666;51.626;7.530;2023-04-03T11:17:55;6.80;92.80
13203;DHT22;6666;51.626;7.530;2023-04-03T11:20:29;6.90;93.50
13203;DHT22;6666;51.626;7.530;2023-04-03T11:23:02;6.70;92.90
13203;DHT22;6666;51.626;7.530;2023-04-03T11:25:33;6.90;93.20
13203;DHT22;6666;51.626;7.530;2023-04-03T11:28:05;6.80;93.40
13203;DHT22;6666;51.626;7.530;2023-04-03T11:30:39;6.80;93.20
13203;DHT22;6666;51.626;7.530;2023-04-03T11:33:27;7.10;92.90
13203;DHT22;6666;51.626;7.530;2023-04-03T11:36:02;7.00;93.40
13203;DHT22;6666;51.626;7.530;2023-04-03T11:38:54;7.20;94.30
13203;DHT22;6666;51.626;7.530;2023-04-03T11:41:28;7.20;93.60
13203;DHT22;6666;51.626;7.530;2023-04-03T11:43:59;7.40;93.10
13203;DHT22;6666;51.626;7.530;2023-04-03T11:46:49;7.30;93.00
13203;DHT22;6666;51.626;7.530;2023-04-03T11:53:02;7.30;93.50
13203;DHT22;6666;51.626;7.530;2023-04-03T11:55:52;7.40;93.20
13203;DHT22;6666;51.626;7.530;2023-04-03T11:58:23;7.10;93.70
13203;DHT22;6666;51.626;7.530;2023-04-03T12:01:03;7.20;92.30
13203;DHT22;6666;51.626;7.530;2023-04-03T12:03:57;7.40;94.10
13203;DHT22;6666;51.626;7.530;2023-04-03T12:09:59;7.30;92.70
13203;DHT22;6666;51.626;7.530;2023-04-03T12:12:39;7.10;91.50
13203;DHT22;6666;51.626;7.530;2023-04-03T12:15:41;7.20;91.80
13203;DHT22;6666;51.626;7.530;2023-04-03T12:21:20;7.30;91.70
13203;DHT22;6666;51.626;7.530;2023-04-03T12:24:01;7.30;91.20
13203;DHT22;6666;51.626;7.530;2023-04-03T12:26:36;7.60;91.70
13203;DHT22;6666;51.626;7.530;2023-04-03T12:29:20;7.50;91.60
13203;DHT22;6666;51.626;7.530;2023-04-03T12:31:59;7.70;93.30
13203;DHT22;6666;51.626;7.530;2023-04-03T12:34:44;7.70;91.00
13203;DHT22;6666;51.626;7.530;2023-04-03T12:37:30;7.60;91.30
13203;DHT22;6666;51.626;7.530;2023-04-03T12:40:10;7.70;93.00
13203;DHT22;6666;51.626;7.530;2023-04-03T12:43:00;7.60;91.80
13203;DHT22;6666;51.626;7.530;2023-04-03T12:45:40;7.50;91.70
13203;DHT22;6666;51.626;7.530;2023-04-03T12:48:14;7.60;91.40
13203;DHT22;6666;51.626;7.530;2023-04-03T12:50:45;7.80;91.20
13203;DHT22;6666;51.626;7.530;2023-04-03T12:53:16;7.70;91.00
13203;DHT22;6666;51.626;7.530;2023-04-03T12:55:46;7.90;92.80
13203;DHT22;6666;51.626;7.530;2023-04-03T12:58:19;7.90;91.10
13203;DHT22;6666;51.626;7.530;2023-04-03T13:00:59;7.90;91.50
13203;DHT22;6666;51.626;7.530;2023-04-03T13:03:29;7.70;90.70
13203;DHT22;6666;51.626;7.530;2023-04-03T13:06:00;7.70;91.90
13203;DHT22;6666;51.626;7.530;2023-04-03T13:08:29;8.00;91.80
13203;DHT22;6666;51.626;7.530;2023-04-03T13:11:00;7.90;92.30
13203;DHT22;6666;51.626;7.530;2023-04-03T13:13:31;7.60;91.50
13203;DHT22;6666;51.626;7.530;2023-04-03T13:16:08;7.80;94.20
13203;DHT22;6666;51.626;7.530;2023-04-03T13:18:37;7.80;92.30
13203;DHT22;6666;51.626;7.530;2023-04-03T13:21:07;7.90;91.20
13203;DHT22;6666;51.626;7.530;2023-04-03T13:23:40;7.70;91.20
13203;DHT22;6666;51.626;7.530;2023-04-03T13:26:11;7.50;91.00
13203;DHT22;6666;51.626;7.530;2023-04-03T13:28:41;7.50;92.10
13203;DHT22;6666;51.626;7.530;2023-04-03T13:31:19;7.90;92.20
13203;DHT22;6666;51.626;7.530;2023-04-03T13:33:55;7.90;91.30
13203;DHT22;6666;51.626;7.530;2023-04-03T13:36:27;7.50;91.30
13203;DHT22;6666;51.626;7.530;2023-04-03T13:39:03;7.40;91.70
13203;DHT22;6666;51.626;7.530;2023-04-03T13:41:33;7.60;91.80
13203;DHT22;6666;51.626;7.530;2023-04-03T13:44:23;7.80;92.80
13203;DHT22;6666;51.626;7.530;2023-04-03T13:46:55;7.90;90.80
13203;DHT22;6666;51.626;7.530;2023-04-03T13:49:30;7.90;91.40
13203;DHT22;6666;51.626;7.530;2023-04-03T13:51:59;8.10;92.50
13203;DHT22;6666;51.626;7.530;2023-04-03T13:54:36;7.90;90.90
13203;DHT22;6666;51.626;7.530;2023-04-03T13:57:12;8.00;91.70
13203;DHT22;6666;51.626;7.530;2023-04-03T13:59:45;8.20;92.00
13203;DHT22;6666;51.626;7.530;2023-04-03T14:02:17;7.80;91.40
13203;DHT22;6666;51.626;7.530;2023-04-03T14:04:54;7.80;91.90
13203;DHT22;6666;51.626;7.530;2023-04-03T14:07:26;7.60;92.60
13203;DHT22;6666;51.626;7.530;2023-04-03T14:09:55;7.80;93.50
13203;DHT22;6666;51.626;7.530;2023-04-03T14:12:26;7.70;92.70
13203;DHT22;6666;51.626;7.530;2023-04-03T14:15:00;7.70;92.40
13203;DHT22;6666;51.626;7.530;2023-04-03T14:17:29;7.90;93.40
13203;DHT22;6666;51.626;7.530;2023-04-03T14:19:58;7.90;91.90
13203;DHT22;6666;51.626;7.530;2023-04-03T14:22:30;7.70;91.40
13203;DHT22;6666;51.626;7.530;2023-04-03T14:24:58;7.90;91.00
13203;DHT22;6666;51.626;7.530;2023-04-03T14:27:29;7.80;91.00
13203;DHT22;6666;51.626;7.530;2023-04-03T14:30:00;8.00;91.80
13203;DHT22;6666;51.626;7.530;2023-04-03T14:32:30;8.10;90.40
13203;DHT22;6666;51.626;7.530;2023-04-03T14:34:58;8.10;90.10
13203;DHT22;6666;51.626;7.530;2023-04-03T14:37:29;8.10;89.10
13203;DHT22;6666;51.626;7.530;2023-04-03T14:39:59;8.10;90.00
13203;DHT22;6666;51.626;7.530;2023-04-03T14:42:30;8.10;90.40
13203;DHT22;6666;51.626;7.530;2023-04-03T14:45:02;8.10;90.30
13203;DHT22;6666;51.626;7.530;2023-04-03T14:47:31;8.00;91.40
13203;DHT22;6666;51.626;7.530;2023-04-03T14:50:02;8.10;91.80
13203;DHT22;6666;51.626;7.530;2023-04-03T14:52:34;8.10;91.20
13203;DHT22;6666;51.626;7.530;2023-04-03T14:55:04;8.50;93.80
13203;DHT22;6666;51.626;7.530;2023-04-03T14:57:33;8.60;92.70
13203;DHT22;6666;51.626;7.530;2023-04-03T15:00:06;8.40;91.60
13203;DHT22;6666;51.626;7.530;2023-04-03T15:02:37;8.00;91.50
13203;DHT22;6666;51.626;7.530;2023-04-03T15:05:07;7.70;91.30
13203;DHT22;6666;51.626;7.530;2023-04-03T15:07:38;7.90;91.40
13203;DHT22;6666;51.626;7.530;2023-04-03T15:10:16;7.80;91.40
13203;DHT22;6666;51.626;7.530;2023-04-03T15:12:45;7.90;91.20
13203;DHT22;6666;51.626;7.530;2023-04-03T15:15:17;7.90;91.50
13203;DHT22;6666;51.626;7.530;2023-04-03T15:17:49;7.90;90.40
13203;DHT22;6666;51.626;7.530;2023-04-03T15:20:22;7.90;90.90
13203;DHT22;6666;51.626;7.530;2023-04-03T15:22:51;7.90;91.90
13203;DHT22;6666;51.626;7.530;2023-04-03T15:25:19;8.00;90.70
13203;DHT22;6666;51.626;7.530;2023-04-03T15:27:48;8.00;90.70
13203;DHT22;6666;51.626;7.530;2023-04-03T15:30:19;8.00;91.20
13203;DHT22;6666;51.626;7.530;2023-04-03T15:32:48;8.10;91.00
13203;DHT22;6666;51.626;7.530;2023-04-03T15:35:17;8.00;90.40
13203;DHT22;6666;51.626;7.530;2023-04-03T15:37:45;7.80;90.20
13203;DHT22;6666;51.626;7.530;2023-04-03T15:40:15;7.90;90.20
13203;DHT22;6666;51.626;7.530;2023-04-03T15:42:44;7.90;90.40
13203;DHT22;6666;51.626;7.530;2023-04-03T15:45:12;7.90;90.20
13203;DHT22;6666;51.626;7.530;2023-04-03T15:47:42;7.80;90.10
13203;DHT22;6666;51.626;7.530;2023-04-03T15:50:10;7.90;90.70
13203;DHT22;6666;51.626;7.530;2023-04-03T15:52:39;7.80;90.10
13203;DHT22;6666;51.626;7.530;2023-04-03T15:55:08;7.70;90.10
13203;DHT22;6666;51.626;7.530;2023-04-03T15:57:36;7.90;91.50
13203;DHT22;6666;51.626;7.530;2023-04-03T16:00:10;7.90;90.80
13203;DHT22;6666;51.626;7.530;2023-04-03T16:02:41;7.80;90.70
13203;DHT22;6666;51.626;7.530;2023-04-03T16:05:10;7.70;90.90
13203;DHT22;6666;51.626;7.530;2023-04-03T16:07:40;7.70;91.90
13203;DHT22;6666;51.626;7.530;2023-04-03T16:10:10;7.80;90.50
13203;DHT22;6666;51.626;7.530;2023-04-03T16:12:38;7.90;90.50
13203;DHT22;6666;51.626;7.530;2023-04-03T16:15:07;7.70;90.20
13203;DHT22;6666;51.626;7.530;2023-04-03T16:17:37;7.70;88.40
13203;DHT22;6666;51.626;7.530;2023-04-03T16:20:11;7.50;89.00
13203;DHT22;6666;51.626;7.530;2023-04-03T16:22:41;7.60;90.40
13203;DHT22;6666;51.626;7.530;2023-04-03T16:25:10;7.60;90.80
13203;DHT22;6666;51.626;7.530;2023-04-03T16:27:39;7.60;90.80
13203;DHT22;6666;51.626;7.530;2023-04-03T16:30:08;7.60;90.90
13203;DHT22;6666;51.626;7.530;2023-04-03T16:32:37;7.50;88.70
13203;DHT22;6666;51.626;7.530;2023-04-03T16:35:08;7.50;88.60
13203;DHT22;6666;51.626;7.530;2023-04-03T16:37:38;7.50;89.00
13203;DHT22;6666;51.626;7.530;2023-04-03T16:40:07;7.40;88.50
13203;DHT22;6666;51.626;7.530;2023-04-03T16:42:36;7.40;90.30